sensor_id;sensor_type;location;lat;lon;timestamp;P1;durP1;ratioP1;P2;durP2;ratioP2
14100;SDS011;7127;49.372;8.166;2023-12-29T00:00:01;0.70;;;0.70;;
14100;SDS011;7127;49.372;8.166;2023-12-29T00:02:29;1.17;;;0.80;;
14100;SDS011;7127;49.372;8.166;2023-12-29T00:04:56;1.27;;;1.10;;
14100;SDS011;7127;49.372;8.166;2023-12-29T00:07:22;1.57;;;1.07;;
14100;SDS011;7127;49.372;8.166;2023-12-29T00:09:49;0.90;;;0.90;;
14100;SDS011;7127;49.372;8.166;2023-12-29T00:12:16;1.47;;;1.30;;
14100;SDS011;7127;49.372;8.166;2023-12-29T00:14:43;1.60;;;1.20;;
14100;SDS011;7127;49.372;8.166;2023-12-29T00:17:09;1.30;;;1.00;;
14100;SDS011;7127;49.372;8.166;2023-12-29T00:19:38;1.20;;;1.10;;
14100;SDS011;7127;49.372;8.166;2023-12-29T00:22:04;1.00;;;0.90;;
14100;SDS011;7127;49.372;8.166;2023-12-29T00:24:31;1.30;;;1.20;;
14100;SDS011;7127;49.372;8.166;2023-12-29T00:26:58;2.03;;;1.17;;
14100;SDS011;7127;49.372;8.166;2023-12-29T00:29:26;1.13;;;1.03;;
14100;SDS011;7127;49.372;8.166;2023-12-29T00:31:57;1.20;;;1.10;;
14100;SDS011;7127;49.372;8.166;2023-12-29T00:34:25;1.43;;;1.30;;
14100;SDS011;7127;49.372;8.166;2023-12-29T00:36:53;1.20;;;1.10;;
14100;SDS011;7127;49.372;8.166;2023-12-29T00:39:20;1.20;;;1.07;;
14100;SDS011;7127;49.372;8.166;2023-12-29T00:41:53;1.20;;;1.10;;
14100;SDS011;7127;49.372;8.166;2023-12-29T00:44:21;1.53;;;1.03;;
14100;SDS011;7127;49.372;8.166;2023-12-29T00:46:47;1.17;;;1.07;;
14100;SDS011;7127;49.372;8.166;2023-12-29T00:49:14;1.20;;;1.00;;
14100;SDS011;7127;49.372;8.166;2023-12-29T00:51:41;1.67;;;1.20;;
14100;SDS011;7127;49.372;8.166;2023-12-29T00:54:11;1.03;;;1.00;;
14100;SDS011;7127;49.372;8.166;2023-12-29T00:56:37;1.23;;;1.13;;
14100;SDS011;7127;49.372;8.166;2023-12-29T00:59:04;1.47;;;1.23;;
14100;SDS011;7127;49.372;8.166;2023-12-29T01:01:33;1.60;;;1.10;;
14100;SDS011;7127;49.372;8.166;2023-12-29T01:04:00;1.13;;;1.00;;
14100;SDS011;7127;49.372;8.166;2023-12-29T01:06:27;1.20;;;1.10;;
14100;SDS011;7127;49.372;8.166;2023-12-29T01:08:54;0.93;;;0.90;;
14100;SDS011;7127;49.372;8.166;2023-12-29T01:11:23;1.17;;;1.07;;
14100;SDS011;7127;49.372;8.166;2023-12-29T01:13:49;1.27;;;1.10;;
14100;SDS011;7127;49.372;8.166;2023-12-29T01:16:16;1.20;;;1.10;;
14100;SDS011;7127;49.372;8.166;2023-12-29T01:18:43;1.33;;;1.23;;
14100;SDS011;7127;49.372;8.166;2023-12-29T01:21:10;1.27;;;1.17;;
14100;SDS011;7127;49.372;8.166;2023-12-29T01:23:36;2.03;;;1.20;;
14100;SDS011;7127;49.372;8.166;2023-12-29T01:26:03;1.17;;;1.00;;
14100;SDS011;7127;49.372;8.166;2023-12-29T01:28:31;1.17;;;0.90;;
14100;SDS011;7127;49.372;8.166;2023-12-29T01:30:58;1.10;;;1.00;;
14100;SDS011;7127;49.372;8.166;2023-12-29T01:33:25;1.50;;;1.00;;
14100;SDS011;7127;49.372;8.166;2023-12-29T01:35:52;0.97;;;0.93;;
14100;SDS011;7127;49.372;8.166;2023-12-29T01:38:19;0.90;;;0.90;;
14100;SDS011;7127;49.372;8.166;2023-12-29T01:40:46;1.40;;;1.07;;
14100;SDS011;7127;49.372;8.166;2023-12-29T01:43:13;1.20;;;1.10;;
14100;SDS011;7127;49.372;8.166;2023-12-29T01:45:41;0.90;;;0.90;;
14100;SDS011;7127;49.372;8.166;2023-12-29T01:48:08;1.30;;;0.80;;
14100;SDS011;7127;49.372;8.166;2023-12-29T01:50:35;0.80;;;0.80;;
14100;SDS011;7127;49.372;8.166;2023-12-29T01:53:02;0.90;;;0.90;;
14100;SDS011;7127;49.372;8.166;2023-12-29T01:55:31;0.90;;;0.90;;
14100;SDS011;7127;49.372;8.166;2023-12-29T01:57:58;0.93;;;0.80;;
14100;SDS011;7127;49.372;8.166;2023-12-29T02:00:26;1.00;;;0.90;;
14100;SDS011;7127;49.372;8.166;2023-12-29T02:02:54;0.90;;;0.90;;
14100;SDS011;7127;49.372;8.166;2023-12-29T02:05:21;0.80;;;0.70;;
14100;SDS011;7127;49.372;8.166;2023-12-29T02:07:51;1.07;;;1.00;;
14100;SDS011;7127;49.372;8.166;2023-12-29T02:10:18;1.07;;;0.90;;
14100;SDS011;7127;49.372;8.166;2023-12-29T02:12:46;1.27;;;1.00;;
14100;SDS011;7127;49.372;8.166;2023-12-29T02:15:14;0.90;;;0.90;;
14100;SDS011;7127;49.372;8.166;2023-12-29T02:17:41;1.10;;;1.00;;
14100;SDS011;7127;49.372;8.166;2023-12-29T02:20:13;0.80;;;0.80;;
14100;SDS011;7127;49.372;8.166;2023-12-29T02:22:40;0.70;;;0.70;;
14100;SDS011;7127;49.372;8.166;2023-12-29T02:25:09;1.10;;;1.00;;
14100;SDS011;7127;49.372;8.166;2023-12-29T02:27:40;1.00;;;0.90;;
14100;SDS011;7127;49.372;8.166;2023-12-29T02:30:10;1.10;;;1.00;;
14100;SDS011;7127;49.372;8.166;2023-12-29T02:32:48;1.20;;;1.10;;
14100;SDS011;7127;49.372;8.166;2023-12-29T02:35:21;1.13;;;0.90;;
14100;SDS011;7127;49.372;8.166;2023-12-29T02:37:50;2.07;;;1.30;;
14100;SDS011;7127;49.372;8.166;2023-12-29T02:40:19;0.93;;;0.80;;
14100;SDS011;7127;49.372;8.166;2023-12-29T02:42:47;0.80;;;0.70;;
14100;SDS011;7127;49.372;8.166;2023-12-29T02:45:14;0.70;;;0.70;;
14100;SDS011;7127;49.372;8.166;2023-12-29T02:47:41;2.00;;;0.90;;
14100;SDS011;7127;49.372;8.166;2023-12-29T02:50:08;1.10;;;0.80;;
14100;SDS011;7127;49.372;8.166;2023-12-29T02:52:34;1.13;;;1.03;;
14100;SDS011;7127;49.372;8.166;2023-12-29T02:55:01;1.00;;;0.90;;
14100;SDS011;7127;49.372;8.166;2023-12-29T02:57:30;2.40;;;1.00;;
14100;SDS011;7127;49.372;8.166;2023-12-29T02:59:56;0.80;;;0.80;;
14100;SDS011;7127;49.372;8.166;2023-12-29T03:02:23;1.20;;;1.10;;
14100;SDS011;7127;49.372;8.166;2023-12-29T03:04:50;0.80;;;0.80;;
14100;SDS011;7127;49.372;8.166;2023-12-29T03:07:17;2.37;;;0.90;;
14100;SDS011;7127;49.372;8.166;2023-12-29T03:09:44;0.90;;;0.90;;
14100;SDS011;7127;49.372;8.166;2023-12-29T03:12:11;0.90;;;0.80;;
14100;SDS011;7127;49.372;8.166;2023-12-29T03:14:39;2.87;;;1.07;;
14100;SDS011;7127;49.372;8.166;2023-12-29T03:17:06;0.97;;;0.90;;
14100;SDS011;7127;49.372;8.166;2023-12-29T03:19:32;1.40;;;1.30;;
14100;SDS011;7127;49.372;8.166;2023-12-29T03:21:59;1.20;;;1.03;;
14100;SDS011;7127;49.372;8.166;2023-12-29T03:24:26;1.37;;;0.80;;
14100;SDS011;7127;49.372;8.166;2023-12-29T03:26:54;1.53;;;1.23;;
14100;SDS011;7127;49.372;8.166;2023-12-29T03:29:21;1.60;;;1.10;;
14100;SDS011;7127;49.372;8.166;2023-12-29T03:31:49;1.10;;;1.00;;
14100;SDS011;7127;49.372;8.166;2023-12-29T03:34:16;1.10;;;0.90;;
14100;SDS011;7127;49.372;8.166;2023-12-29T03:36:44;1.23;;;1.13;;
14100;SDS011;7127;49.372;8.166;2023-12-29T03:39:11;0.77;;;0.77;;
14100;SDS011;7127;49.372;8.166;2023-12-29T03:41:38;1.40;;;1.10;;
14100;SDS011;7127;49.372;8.166;2023-12-29T03:44:05;2.20;;;1.20;;
14100;SDS011;7127;49.372;8.166;2023-12-29T03:46:32;1.10;;;1.00;;
14100;SDS011;7127;49.372;8.166;2023-12-29T03:49:00;1.17;;;1.03;;
14100;SDS011;7127;49.372;8.166;2023-12-29T03:51:26;1.13;;;0.97;;
14100;SDS011;7127;49.372;8.166;2023-12-29T03:53:53;1.00;;;0.90;;
14100;SDS011;7127;49.372;8.166;2023-12-29T03:56:20;1.40;;;1.00;;
14100;SDS011;7127;49.372;8.166;2023-12-29T03:58:47;1.13;;;1.03;;
14100;SDS011;7127;49.372;8.166;2023-12-29T04:01:14;1.70;;;1.43;;
14100;SDS011;7127;49.372;8.166;2023-12-29T04:03:42;1.40;;;0.90;;
14100;SDS011;7127;49.372;8.166;2023-12-29T04:06:11;1.23;;;1.00;;
14100;SDS011;7127;49.372;8.166;2023-12-29T04:08:37;1.10;;;1.00;;
14100;SDS011;7127;49.372;8.166;2023-12-29T04:11:04;1.50;;;1.10;;
14100;SDS011;7127;49.372;8.166;2023-12-29T04:13:31;2.20;;;1.30;;
14100;SDS011;7127;49.372;8.166;2023-12-29T04:15:58;1.10;;;1.00;;
14100;SDS011;7127;49.372;8.166;2023-12-29T04:18:25;1.70;;;1.10;;
14100;SDS011;7127;49.372;8.166;2023-12-29T04:20:53;0.90;;;0.90;;
14100;SDS011;7127;49.372;8.166;2023-12-29T04:23:21;1.43;;;0.97;;
14100;SDS011;7127;49.372;8.166;2023-12-29T04:25:48;1.13;;;1.03;;
14100;SDS011;7127;49.372;8.166;2023-12-29T04:28:15;0.90;;;0.90;;
14100;SDS011;7127;49.372;8.166;2023-12-29T04:30:42;1.57;;;1.17;;
14100;SDS011;7127;49.372;8.166;2023-12-29T04:33:08;0.80;;;0.80;;
14100;SDS011;7127;49.372;8.166;2023-12-29T04:35:35;1.03;;;0.93;;
14100;SDS011;7127;49.372;8.166;2023-12-29T04:38:02;1.20;;;1.10;;
14100;SDS011;7127;49.372;8.166;2023-12-29T04:40:30;1.40;;;1.17;;
14100;SDS011;7127;49.372;8.166;2023-12-29T04:42:57;1.30;;;1.10;;
14100;SDS011;7127;49.372;8.166;2023-12-29T04:45:23;1.37;;;1.00;;
14100;SDS011;7127;49.372;8.166;2023-12-29T04:47:50;1.07;;;0.97;;
14100;SDS011;7127;49.372;8.166;2023-12-29T04:50:17;1.63;;;1.00;;
14100;SDS011;7127;49.372;8.166;2023-12-29T04:52:44;1.20;;;1.00;;
14100;SDS011;7127;49.372;8.166;2023-12-29T04:55:11;1.10;;;1.00;;
14100;SDS011;7127;49.372;8.166;2023-12-29T04:57:39;1.00;;;0.90;;
14100;SDS011;7127;49.372;8.166;2023-12-29T05:00:06;1.17;;;1.07;;
14100;SDS011;7127;49.372;8.166;2023-12-29T05:02:34;1.00;;;0.90;;
14100;SDS011;7127;49.372;8.166;2023-12-29T05:05:00;1.23;;;0.97;;
14100;SDS011;7127;49.372;8.166;2023-12-29T05:07:27;1.20;;;1.00;;
14100;SDS011;7127;49.372;8.166;2023-12-29T05:09:54;0.97;;;0.93;;
14100;SDS011;7127;49.372;8.166;2023-12-29T05:12:21;1.73;;;1.10;;
14100;SDS011;7127;49.372;8.166;2023-12-29T05:14:49;1.27;;;0.97;;
14100;SDS011;7127;49.372;8.166;2023-12-29T05:17:16;1.00;;;1.00;;
14100;SDS011;7127;49.372;8.166;2023-12-29T05:19:42;1.50;;;0.90;;
14100;SDS011;7127;49.372;8.166;2023-12-29T05:22:09;1.07;;;0.90;;
14100;SDS011;7127;49.372;8.166;2023-12-29T05:24:39;1.10;;;1.00;;
14100;SDS011;7127;49.372;8.166;2023-12-29T05:27:06;0.80;;;0.77;;
14100;SDS011;7127;49.372;8.166;2023-12-29T05:29:32;0.73;;;0.70;;
14100;SDS011;7127;49.372;8.166;2023-12-29T05:32:00;1.37;;;1.00;;
14100;SDS011;7127;49.372;8.166;2023-12-29T05:34:28;0.80;;;0.80;;
14100;SDS011;7127;49.372;8.166;2023-12-29T05:36:55;0.50;;;0.50;;
14100;SDS011;7127;49.372;8.166;2023-12-29T05:39:21;1.33;;;0.90;;
14100;SDS011;7127;49.372;8.166;2023-12-29T05:41:48;0.70;;;0.70;;
14100;SDS011;7127;49.372;8.166;2023-12-29T05:44:15;0.80;;;0.70;;
14100;SDS011;7127;49.372;8.166;2023-12-29T05:46:45;1.13;;;0.90;;
14100;SDS011;7127;49.372;8.166;2023-12-29T05:49:14;0.77;;;0.73;;
14100;SDS011;7127;49.372;8.166;2023-12-29T05:51:40;1.20;;;0.90;;
14100;SDS011;7127;49.372;8.166;2023-12-29T05:54:09;0.60;;;0.60;;
14100;SDS011;7127;49.372;8.166;2023-12-29T05:56:35;0.70;;;0.70;;
14100;SDS011;7127;49.372;8.166;2023-12-29T05:59:02;1.90;;;0.80;;
14100;SDS011;7127;49.372;8.166;2023-12-29T06:01:29;0.80;;;0.70;;
14100;SDS011;7127;49.372;8.166;2023-12-29T06:03:56;0.53;;;0.53;;
14100;SDS011;7127;49.372;8.166;2023-12-29T06:06:24;1.20;;;0.80;;
14100;SDS011;7127;49.372;8.166;2023-12-29T06:08:50;1.23;;;0.63;;
14100;SDS011;7127;49.372;8.166;2023-12-29T06:11:17;0.90;;;0.77;;
14100;SDS011;7127;49.372;8.166;2023-12-29T06:13:45;0.93;;;0.80;;
14100;SDS011;7127;49.372;8.166;2023-12-29T06:16:16;0.70;;;0.70;;
14100;SDS011;7127;49.372;8.166;2023-12-29T06:18:44;0.87;;;0.70;;
14100;SDS011;7127;49.372;8.166;2023-12-29T06:21:10;1.47;;;0.87;;
14100;SDS011;7127;49.372;8.166;2023-12-29T06:23:38;0.90;;;0.80;;
14100;SDS011;7127;49.372;8.166;2023-12-29T06:26:05;1.37;;;0.70;;
14100;SDS011;7127;49.372;8.166;2023-12-29T06:28:39;0.80;;;0.70;;
14100;SDS011;7127;49.372;8.166;2023-12-29T06:31:06;1.50;;;0.90;;
14100;SDS011;7127;49.372;8.166;2023-12-29T06:33:32;0.60;;;0.60;;
14100;SDS011;7127;49.372;8.166;2023-12-29T06:35:59;0.80;;;0.70;;
14100;SDS011;7127;49.372;8.166;2023-12-29T06:38:26;2.63;;;1.10;;
14100;SDS011;7127;49.372;8.166;2023-12-29T06:40:54;1.20;;;0.87;;
14100;SDS011;7127;49.372;8.166;2023-12-29T06:43:21;1.20;;;0.93;;
14100;SDS011;7127;49.372;8.166;2023-12-29T06:45:48;1.83;;;0.80;;
14100;SDS011;7127;49.372;8.166;2023-12-29T06:48:14;0.70;;;0.70;;
14100;SDS011;7127;49.372;8.166;2023-12-29T06:50:41;0.90;;;0.70;;
14100;SDS011;7127;49.372;8.166;2023-12-29T06:53:08;0.50;;;0.50;;
14100;SDS011;7127;49.372;8.166;2023-12-29T06:55:35;0.90;;;0.50;;
14100;SDS011;7127;49.372;8.166;2023-12-29T06:58:03;1.57;;;0.70;;
14100;SDS011;7127;49.372;8.166;2023-12-29T07:00:30;2.03;;;0.90;;
14100;SDS011;7127;49.372;8.166;2023-12-29T07:02:58;1.17;;;0.70;;
14100;SDS011;7127;49.372;8.166;2023-12-29T07:05:26;1.27;;;0.87;;
14100;SDS011;7127;49.372;8.166;2023-12-29T07:07:53;0.93;;;0.73;;
14100;SDS011;7127;49.372;8.166;2023-12-29T07:10:19;1.07;;;0.70;;
14100;SDS011;7127;49.372;8.166;2023-12-29T07:12:46;1.00;;;0.90;;
14100;SDS011;7127;49.372;8.166;2023-12-29T07:15:14;0.80;;;0.60;;
14100;SDS011;7127;49.372;8.166;2023-12-29T07:17:41;0.60;;;0.60;;
14100;SDS011;7127;49.372;8.166;2023-12-29T07:20:08;0.70;;;0.70;;
14100;SDS011;7127;49.372;8.166;2023-12-29T07:22:35;1.17;;;0.97;;
14100;SDS011;7127;49.372;8.166;2023-12-29T07:25:02;2.20;;;0.63;;
14100;SDS011;7127;49.372;8.166;2023-12-29T07:27:29;0.80;;;0.70;;
14100;SDS011;7127;49.372;8.166;2023-12-29T07:29:55;1.50;;;0.77;;
14100;SDS011;7127;49.372;8.166;2023-12-29T07:32:24;1.10;;;0.70;;
14100;SDS011;7127;49.372;8.166;2023-12-29T07:34:51;1.17;;;0.70;;
14100;SDS011;7127;49.372;8.166;2023-12-29T07:37:17;0.50;;;0.50;;
14100;SDS011;7127;49.372;8.166;2023-12-29T07:39:44;1.13;;;0.70;;
14100;SDS011;7127;49.372;8.166;2023-12-29T07:42:12;1.10;;;1.00;;
14100;SDS011;7127;49.372;8.166;2023-12-29T07:44:41;0.73;;;0.60;;
14100;SDS011;7127;49.372;8.166;2023-12-29T07:47:08;0.80;;;0.67;;
14100;SDS011;7127;49.372;8.166;2023-12-29T07:49:37;1.53;;;0.70;;
14100;SDS011;7127;49.372;8.166;2023-12-29T07:52:04;1.20;;;0.80;;
14100;SDS011;7127;49.372;8.166;2023-12-29T07:54:31;2.00;;;0.80;;
14100;SDS011;7127;49.372;8.166;2023-12-29T07:56:58;1.97;;;1.00;;
14100;SDS011;7127;49.372;8.166;2023-12-29T07:59:25;0.63;;;0.63;;
14100;SDS011;7127;49.372;8.166;2023-12-29T08:01:52;0.80;;;0.57;;
14100;SDS011;7127;49.372;8.166;2023-12-29T08:04:18;1.70;;;0.67;;
14100;SDS011;7127;49.372;8.166;2023-12-29T08:06:46;1.43;;;0.90;;
14100;SDS011;7127;49.372;8.166;2023-12-29T08:09:13;2.47;;;0.80;;
14100;SDS011;7127;49.372;8.166;2023-12-29T08:11:40;2.50;;;0.90;;
14100;SDS011;7127;49.372;8.166;2023-12-29T08:14:08;0.77;;;0.53;;
14100;SDS011;7127;49.372;8.166;2023-12-29T08:16:37;1.00;;;0.67;;
14100;SDS011;7127;49.372;8.166;2023-12-29T08:19:05;1.43;;;1.07;;
14100;SDS011;7127;49.372;8.166;2023-12-29T08:21:31;2.10;;;0.90;;
14100;SDS011;7127;49.372;8.166;2023-12-29T08:24:00;0.90;;;0.53;;
14100;SDS011;7127;49.372;8.166;2023-12-29T08:26:26;0.80;;;0.43;;
14100;SDS011;7127;49.372;8.166;2023-12-29T08:28:53;1.27;;;0.67;;
14100;SDS011;7127;49.372;8.166;2023-12-29T08:31:20;0.97;;;0.80;;
14100;SDS011;7127;49.372;8.166;2023-12-29T08:33:48;1.03;;;0.80;;
14100;SDS011;7127;49.372;8.166;2023-12-29T08:36:17;1.53;;;0.70;;
14100;SDS011;7127;49.372;8.166;2023-12-29T08:38:44;0.90;;;0.87;;
14100;SDS011;7127;49.372;8.166;2023-12-29T08:41:14;1.17;;;0.77;;
14100;SDS011;7127;49.372;8.166;2023-12-29T08:43:41;0.63;;;0.50;;
14100;SDS011;7127;49.372;8.166;2023-12-29T08:46:08;0.80;;;0.70;;
14100;SDS011;7127;49.372;8.166;2023-12-29T08:48:34;0.70;;;0.60;;
14100;SDS011;7127;49.372;8.166;2023-12-29T08:51:01;0.50;;;0.50;;
14100;SDS011;7127;49.372;8.166;2023-12-29T08:53:28;0.93;;;0.50;;
14100;SDS011;7127;49.372;8.166;2023-12-29T08:55:58;1.47;;;0.47;;
14100;SDS011;7127;49.372;8.166;2023-12-29T08:58:27;2.30;;;0.57;;
14100;SDS011;7127;49.372;8.166;2023-12-29T09:00:54;1.83;;;0.60;;
14100;SDS011;7127;49.372;8.166;2023-12-29T09:03:20;0.67;;;0.60;;
14100;SDS011;7127;49.372;8.166;2023-12-29T09:05:47;0.77;;;0.50;;
14100;SDS011;7127;49.372;8.166;2023-12-29T09:08:14;0.70;;;0.60;;
14100;SDS011;7127;49.372;8.166;2023-12-29T09:10:41;0.60;;;0.60;;
14100;SDS011;7127;49.372;8.166;2023-12-29T09:13:08;0.87;;;0.53;;
14100;SDS011;7127;49.372;8.166;2023-12-29T09:15:36;0.40;;;0.40;;
14100;SDS011;7127;49.372;8.166;2023-12-29T09:18:04;0.90;;;0.70;;
14100;SDS011;7127;49.372;8.166;2023-12-29T09:20:31;1.93;;;0.70;;
14100;SDS011;7127;49.372;8.166;2023-12-29T09:22:58;0.30;;;0.30;;
14100;SDS011;7127;49.372;8.166;2023-12-29T09:25:25;1.13;;;0.63;;
14100;SDS011;7127;49.372;8.166;2023-12-29T09:27:52;1.00;;;0.50;;
14100;SDS011;7127;49.372;8.166;2023-12-29T09:30:19;3.80;;;0.70;;
14100;SDS011;7127;49.372;8.166;2023-12-29T09:32:47;0.53;;;0.53;;
14100;SDS011;7127;49.372;8.166;2023-12-29T09:35:14;0.80;;;0.50;;
14100;SDS011;7127;49.372;8.166;2023-12-29T09:37:42;0.57;;;0.40;;
14100;SDS011;7127;49.372;8.166;2023-12-29T09:40:09;0.57;;;0.40;;
14100;SDS011;7127;49.372;8.166;2023-12-29T09:42:37;1.17;;;0.60;;
14100;SDS011;7127;49.372;8.166;2023-12-29T09:45:05;1.80;;;0.30;;
14100;SDS011;7127;49.372;8.166;2023-12-29T09:47:36;0.70;;;0.50;;
14100;SDS011;7127;49.372;8.166;2023-12-29T09:50:07;0.77;;;0.33;;
14100;SDS011;7127;49.372;8.166;2023-12-29T09:52:37;0.90;;;0.40;;
14100;SDS011;7127;49.372;8.166;2023-12-29T09:55:05;0.20;;;0.20;;
14100;SDS011;7127;49.372;8.166;2023-12-29T09:57:35;0.50;;;0.43;;
14100;SDS011;7127;49.372;8.166;2023-12-29T10:00:03;0.80;;;0.50;;
14100;SDS011;7127;49.372;8.166;2023-12-29T10:02:30;1.33;;;0.50;;
14100;SDS011;7127;49.372;8.166;2023-12-29T10:04:59;0.43;;;0.40;;
14100;SDS011;7127;49.372;8.166;2023-12-29T10:07:31;0.60;;;0.40;;
14100;SDS011;7127;49.372;8.166;2023-12-29T10:10:02;0.60;;;0.43;;
14100;SDS011;7127;49.372;8.166;2023-12-29T10:12:30;0.70;;;0.40;;
14100;SDS011;7127;49.372;8.166;2023-12-29T10:15:01;0.97;;;0.40;;
14100;SDS011;7127;49.372;8.166;2023-12-29T10:17:35;1.13;;;0.60;;
14100;SDS011;7127;49.372;8.166;2023-12-29T10:20:11;0.80;;;0.60;;
14100;SDS011;7127;49.372;8.166;2023-12-29T10:22:51;0.67;;;0.60;;
14100;SDS011;7127;49.372;8.166;2023-12-29T10:25:30;0.80;;;0.67;;
14100;SDS011;7127;49.372;8.166;2023-12-29T10:27:58;1.07;;;0.60;;
14100;SDS011;7127;49.372;8.166;2023-12-29T10:30:25;1.23;;;0.60;;
14100;SDS011;7127;49.372;8.166;2023-12-29T10:32:53;0.60;;;0.60;;
14100;SDS011;7127;49.372;8.166;2023-12-29T10:35:19;1.00;;;0.80;;
14100;SDS011;7127;49.372;8.166;2023-12-29T10:37:46;11.10;;;3.30;;
14100;SDS011;7127;49.372;8.166;2023-12-29T10:40:18;6.07;;;2.57;;
14100;SDS011;7127;49.372;8.166;2023-12-29T10:42:51;4.47;;;1.83;;
14100;SDS011;7127;49.372;8.166;2023-12-29T10:45:19;3.70;;;1.63;;
14100;SDS011;7127;49.372;8.166;2023-12-29T10:47:47;3.00;;;1.03;;
14100;SDS011;7127;49.372;8.166;2023-12-29T10:50:14;3.90;;;1.50;;
14100;SDS011;7127;49.372;8.166;2023-12-29T10:52:40;1.10;;;1.00;;
14100;SDS011;7127;49.372;8.166;2023-12-29T10:55:08;2.20;;;0.90;;
14100;SDS011;7127;49.372;8.166;2023-12-29T10:57:39;1.10;;;0.80;;
14100;SDS011;7127;49.372;8.166;2023-12-29T11:00:07;1.53;;;0.87;;
14100;SDS011;7127;49.372;8.166;2023-12-29T11:02:37;1.40;;;0.70;;
14100;SDS011;7127;49.372;8.166;2023-12-29T11:05:04;1.50;;;0.60;;
14100;SDS011;7127;49.372;8.166;2023-12-29T11:07:33;0.93;;;0.60;;
14100;SDS011;7127;49.372;8.166;2023-12-29T11:10:02;1.40;;;0.60;;
14100;SDS011;7127;49.372;8.166;2023-12-29T11:12:30;0.73;;;0.60;;
14100;SDS011;7127;49.372;8.166;2023-12-29T11:15:02;0.60;;;0.60;;
14100;SDS011;7127;49.372;8.166;2023-12-29T11:17:30;7.40;;;0.80;;
14100;SDS011;7127;49.372;8.166;2023-12-29T11:19:58;1.77;;;0.80;;
14100;SDS011;7127;49.372;8.166;2023-12-29T11:22:27;1.10;;;0.50;;
14100;SDS011;7127;49.372;8.166;2023-12-29T11:24:56;0.60;;;0.60;;
14100;SDS011;7127;49.372;8.166;2023-12-29T11:27:25;1.83;;;0.50;;
14100;SDS011;7127;49.372;8.166;2023-12-29T11:29:55;0.57;;;0.50;;
14100;SDS011;7127;49.372;8.166;2023-12-29T11:32:24;0.97;;;0.50;;
14100;SDS011;7127;49.372;8.166;2023-12-29T11:35:01;0.70;;;0.50;;
14100;SDS011;7127;49.372;8.166;2023-12-29T11:37:40;0.40;;;0.33;;
14100;SDS011;7127;49.372;8.166;2023-12-29T11:40:18;0.40;;;0.40;;
14100;SDS011;7127;49.372;8.166;2023-12-29T11:42:48;0.90;;;0.50;;
14100;SDS011;7127;49.372;8.166;2023-12-29T11:45:24;0.57;;;0.50;;
14100;SDS011;7127;49.372;8.166;2023-12-29T11:47:53;0.50;;;0.50;;
14100;SDS011;7127;49.372;8.166;2023-12-29T11:50:27;0.80;;;0.50;;
14100;SDS011;7127;49.372;8.166;2023-12-29T11:52:56;1.03;;;0.50;;
14100;SDS011;7127;49.372;8.166;2023-12-29T11:55:25;0.97;;;0.63;;
14100;SDS011;7127;49.372;8.166;2023-12-29T11:57:55;0.90;;;0.50;;
14100;SDS011;7127;49.372;8.166;2023-12-29T12:00:35;0.57;;;0.47;;
14100;SDS011;7127;49.372;8.166;2023-12-29T12:03:18;0.50;;;0.50;;
14100;SDS011;7127;49.372;8.166;2023-12-29T12:05:51;0.50;;;0.50;;
14100;SDS011;7127;49.372;8.166;2023-12-29T12:08:29;0.80;;;0.50;;
14100;SDS011;7127;49.372;8.166;2023-12-29T12:10:57;0.50;;;0.50;;
14100;SDS011;7127;49.372;8.166;2023-12-29T12:13:52;0.80;;;0.63;;
14100;SDS011;7127;49.372;8.166;2023-12-29T12:19:15;0.60;;;0.40;;
14100;SDS011;7127;49.372;8.166;2023-12-29T12:21:43;2.20;;;0.60;;
14100;SDS011;7127;49.372;8.166;2023-12-29T12:24:13;0.47;;;0.47;;
14100;SDS011;7127;49.372;8.166;2023-12-29T12:26:40;0.40;;;0.40;;
14100;SDS011;7127;49.372;8.166;2023-12-29T12:29:07;0.77;;;0.60;;
14100;SDS011;7127;49.372;8.166;2023-12-29T12:31:35;0.30;;;0.30;;
14100;SDS011;7127;49.372;8.166;2023-12-29T12:34:01;0.50;;;0.50;;
14100;SDS011;7127;49.372;8.166;2023-12-29T12:36:31;0.50;;;0.50;;
14100;SDS011;7127;49.372;8.166;2023-12-29T12:38:58;0.40;;;0.40;;
14100;SDS011;7127;49.372;8.166;2023-12-29T12:41:25;0.70;;;0.70;;
14100;SDS011;7127;49.372;8.166;2023-12-29T12:43:55;0.83;;;0.70;;
14100;SDS011;7127;49.372;8.166;2023-12-29T12:46:27;1.00;;;0.50;;
14100;SDS011;7127;49.372;8.166;2023-12-29T12:48:59;0.57;;;0.53;;
14100;SDS011;7127;49.372;8.166;2023-12-29T12:51:26;0.60;;;0.60;;
14100;SDS011;7127;49.372;8.166;2023-12-29T12:53:54;0.47;;;0.47;;
14100;SDS011;7127;49.372;8.166;2023-12-29T12:56:21;0.60;;;0.60;;
14100;SDS011;7127;49.372;8.166;2023-12-29T12:58:52;0.70;;;0.70;;
14100;SDS011;7127;49.372;8.166;2023-12-29T13:01:21;0.80;;;0.70;;
14100;SDS011;7127;49.372;8.166;2023-12-29T13:03:47;0.60;;;0.57;;
14100;SDS011;7127;49.372;8.166;2023-12-29T13:06:15;0.80;;;0.60;;
14100;SDS011;7127;49.372;8.166;2023-12-29T13:08:42;0.63;;;0.63;;
14100;SDS011;7127;49.372;8.166;2023-12-29T13:11:11;0.80;;;0.57;;
14100;SDS011;7127;49.372;8.166;2023-12-29T13:13:38;0.60;;;0.60;;
14100;SDS011;7127;49.372;8.166;2023-12-29T13:16:06;1.57;;;0.67;;
14100;SDS011;7127;49.372;8.166;2023-12-29T13:18:32;0.53;;;0.50;;
14100;SDS011;7127;49.372;8.166;2023-12-29T13:21:00;0.60;;;0.60;;
14100;SDS011;7127;49.372;8.166;2023-12-29T13:23:27;0.50;;;0.50;;
14100;SDS011;7127;49.372;8.166;2023-12-29T13:25:54;1.00;;;0.67;;
14100;SDS011;7127;49.372;8.166;2023-12-29T13:28:24;1.00;;;0.90;;
14100;SDS011;7127;49.372;8.166;2023-12-29T13:30:53;0.53;;;0.53;;
14100;SDS011;7127;49.372;8.166;2023-12-29T13:33:24;0.60;;;0.50;;
14100;SDS011;7127;49.372;8.166;2023-12-29T13:35:56;0.50;;;0.50;;
14100;SDS011;7127;49.372;8.166;2023-12-29T13:38:33;1.13;;;0.67;;
14100;SDS011;7127;49.372;8.166;2023-12-29T13:41:04;0.53;;;0.43;;
14100;SDS011;7127;49.372;8.166;2023-12-29T13:43:37;0.40;;;0.40;;
14100;SDS011;7127;49.372;8.166;2023-12-29T13:46:07;0.77;;;0.60;;
14100;SDS011;7127;49.372;8.166;2023-12-29T13:48:35;0.80;;;0.60;;
14100;SDS011;7127;49.372;8.166;2023-12-29T13:51:03;0.70;;;0.70;;
14100;SDS011;7127;49.372;8.166;2023-12-29T13:53:30;0.70;;;0.70;;
14100;SDS011;7127;49.372;8.166;2023-12-29T13:56:05;0.83;;;0.60;;
14100;SDS011;7127;49.372;8.166;2023-12-29T13:58:33;0.70;;;0.50;;
14100;SDS011;7127;49.372;8.166;2023-12-29T14:01:01;1.77;;;0.80;;
14100;SDS011;7127;49.372;8.166;2023-12-29T14:03:34;0.63;;;0.30;;
14100;SDS011;7127;49.372;8.166;2023-12-29T14:06:08;0.50;;;0.50;;
14100;SDS011;7127;49.372;8.166;2023-12-29T14:08:40;0.60;;;0.60;;
14100;SDS011;7127;49.372;8.166;2023-12-29T14:11:11;0.57;;;0.57;;
14100;SDS011;7127;49.372;8.166;2023-12-29T14:13:41;0.93;;;0.60;;
14100;SDS011;7127;49.372;8.166;2023-12-29T14:16:09;0.63;;;0.50;;
14100;SDS011;7127;49.372;8.166;2023-12-29T14:21:22;1.10;;;0.53;;
14100;SDS011;7127;49.372;8.166;2023-12-29T14:24:06;0.43;;;0.43;;
14100;SDS011;7127;49.372;8.166;2023-12-29T14:26:35;0.60;;;0.40;;
14100;SDS011;7127;49.372;8.166;2023-12-29T14:29:02;0.70;;;0.47;;
14100;SDS011;7127;49.372;8.166;2023-12-29T14:31:38;0.27;;;0.27;;
14100;SDS011;7127;49.372;8.166;2023-12-29T14:34:06;0.30;;;0.30;;
14100;SDS011;7127;49.372;8.166;2023-12-29T14:36:34;0.60;;;0.60;;
14100;SDS011;7127;49.372;8.166;2023-12-29T14:39:02;0.20;;;0.20;;
14100;SDS011;7127;49.372;8.166;2023-12-29T14:41:29;0.50;;;0.50;;
14100;SDS011;7127;49.372;8.166;2023-12-29T14:43:56;0.30;;;0.30;;
14100;SDS011;7127;49.372;8.166;2023-12-29T14:46:24;0.43;;;0.43;;
14100;SDS011;7127;49.372;8.166;2023-12-29T14:48:53;1.20;;;0.70;;
14100;SDS011;7127;49.372;8.166;2023-12-29T14:51:22;0.50;;;0.50;;
14100;SDS011;7127;49.372;8.166;2023-12-29T14:53:49;0.93;;;0.53;;
14100;SDS011;7127;49.372;8.166;2023-12-29T14:56:16;0.57;;;0.57;;
14100;SDS011;7127;49.372;8.166;2023-12-29T14:58:44;0.73;;;0.40;;
14100;SDS011;7127;49.372;8.166;2023-12-29T15:01:11;1.73;;;0.63;;
14100;SDS011;7127;49.372;8.166;2023-12-29T15:03:38;0.53;;;0.40;;
14100;SDS011;7127;49.372;8.166;2023-12-29T15:06:06;0.90;;;0.50;;
14100;SDS011;7127;49.372;8.166;2023-12-29T15:08:33;1.37;;;0.50;;
14100;SDS011;7127;49.372;8.166;2023-12-29T15:11:01;0.77;;;0.57;;